Aeroporto :
LOGIN :

Iscrizione | Disclaimer

   EN    FR    IT 

 










Sommario :    VFR   VFR Marginale   IFR   IFR Intensivo   IFR Molto Intensivo
Visibilità : 
Base nubi : 
>= 8 km
>= 3000ft
5 / 8 km
1000 / 3000 ft
1500m / 5 km
500 / 1000 ft
800 / 1500m
200 / 500 ft
< 800m
< 200 ft
Simboli :   Temporali  Nebbia  Neve Forte  Precipitazioni Forti  Vento > 20 kt
SIGMETs :   Varie  Temporali  Ghiacco  Turbolenza  Onda orograficha  Ceneri Vulcaniche







- Altitudine del aeroporto : 39 ft
- Codice IATA : ANR


EBAW - Anvers / Antwerpen Deurne

ULTIMO METAR :
  • 270450Z 23004KT 9999 FEW023 13/12 Q1010 NOSIG

METARs OBSOLETI :
  • 270420Z 22003KT 9999 FEW030 12/12 Q1010 NOSIG
  • 270350Z AUTO 23003KT 200V260 CAVOK 13/12 Q1010
  • 270320Z AUTO 24003KT CAVOK 13/12 Q1010
  • 270250Z AUTO 31002KT CAVOK 13/11 Q1010
  • 270220Z AUTO 33003KT 280V360 9999 // OVC041/// 13/11 Q1010

TAF TAF EBAW
Valido dal 27 a 03 ore il 27 a 12 ore UTC


270200Z 2703/2712 29006KT 9999 FEW010 BKN040
PROB30
TEMPO 2703/2704 4000 -DZ BR BKN005
Nessun NOTAM noto per questo aeroporto.



MetMap, La meteo Aeronautica in un colpo d'occhio ! - Copyright ORBIFLY Dicembre 2007 - Disclaimer

ORBIFLY MET'MAP TEAM :

Programmazione e sviluppo : Alexandra Zaïnal
Concezione e sviluppo : Baudouin d'Aumeries
Co-Programmazione e sviluppo : Marc-Olivier Méhu
Supporto tecnico e logistico : Manuel Goepfert
Aiuto per la traduzione : Arnaldo La Scala

Contatto : metmap@orbifly.com




FONTI E CREDITI :

   NOAA